createdAt,value
2023-07-12T00:01:17.800Z,25.61
2023-07-12T00:03:45.875Z,25.52
2023-07-12T00:06:15.013Z,25.30
2023-07-12T00:08:43.061Z,25.30
2023-07-12T00:11:16.859Z,25.37
2023-07-12T00:13:46.061Z,25.46
2023-07-12T00:16:20.934Z,25.53
2023-07-12T00:18:48.824Z,25.55
2023-07-12T00:21:23.828Z,25.55
2023-07-12T00:23:53.994Z,25.56
2023-07-12T00:26:27.758Z,25.61
2023-07-12T00:29:03.727Z,25.59
2023-07-12T00:31:33.988Z,25.58
2023-07-12T00:34:01.741Z,25.61
2023-07-12T00:36:32.180Z,25.66
2023-07-12T00:39:01.507Z,25.72
2023-07-12T00:41:46.240Z,25.70
2023-07-12T00:44:20.004Z,25.70
2023-07-12T00:46:50.246Z,25.57
2023-07-12T00:49:17.971Z,25.56
2023-07-12T00:51:51.394Z,25.59
2023-07-12T00:54:21.461Z,25.52
2023-07-12T00:56:49.325Z,25.43
2023-07-12T00:59:24.065Z,25.48
2023-07-12T01:02:00.865Z,25.52
2023-07-12T01:04:32.986Z,25.51
2023-07-12T01:07:00.989Z,25.43
2023-07-12T01:09:29.816Z,25.36
2023-07-12T01:11:58.252Z,25.36
2023-07-12T01:14:28.080Z,25.38
2023-07-12T01:16:59.337Z,25.35
2023-07-12T01:19:27.234Z,25.36
2023-07-12T01:21:58.171Z,25.38
2023-07-12T01:24:28.156Z,25.35
2023-07-12T01:27:00.918Z,25.28
2023-07-12T01:29:31.403Z,25.14
2023-07-12T01:31:59.516Z,25.10
2023-07-12T01:34:27.253Z,24.93
2023-07-12T01:36:56.780Z,24.81
2023-07-12T01:39:25.632Z,24.60
2023-07-12T01:41:54.626Z,24.49
2023-07-12T01:44:22.960Z,24.38
2023-07-12T01:46:50.886Z,24.34
2023-07-12T01:49:18.953Z,24.21
2023-07-12T01:51:47.288Z,24.08
2023-07-12T01:54:16.521Z,24.01
2023-07-12T01:56:44.235Z,24.08
2023-07-12T01:59:11.943Z,24.04
2023-07-12T02:01:40.181Z,23.90
2023-07-12T02:04:08.180Z,23.81
2023-07-12T02:06:35.914Z,23.61
2023-07-12T02:09:04.477Z,23.51
2023-07-12T02:11:33.600Z,23.46
2023-07-12T02:14:01.402Z,23.49
2023-07-12T02:16:29.189Z,23.50
2023-07-12T02:18:57.308Z,23.34
2023-07-12T02:21:25.030Z,23.25
2023-07-12T02:23:54.162Z,23.11
2023-07-12T02:26:21.984Z,23.22
2023-07-12T02:28:51.221Z,23.24
2023-07-12T02:31:22.063Z,23.40
2023-07-12T02:33:50.445Z,23.41
2023-07-12T02:36:18.949Z,23.46
2023-07-12T02:38:47.878Z,23.42
2023-07-12T02:41:16.859Z,23.44
2023-07-12T02:43:45.071Z,23.38
2023-07-12T02:46:14.803Z,23.33
2023-07-12T02:48:42.999Z,23.30
2023-07-12T02:51:11.257Z,23.31
2023-07-12T02:53:41.183Z,23.32
2023-07-12T02:56:09.614Z,23.34
2023-07-12T02:58:37.700Z,23.39
2023-07-12T03:01:05.655Z,23.42
2023-07-12T03:03:34.920Z,23.40
2023-07-12T03:06:07.167Z,23.36
2023-07-12T03:08:35.238Z,23.33
2023-07-12T03:11:04.145Z,23.29
2023-07-12T03:13:31.985Z,23.31
2023-07-12T03:16:00.382Z,23.37
2023-07-12T03:18:28.541Z,23.24
2023-07-12T03:21:01.994Z,23.21
2023-07-12T03:23:31.292Z,23.26
2023-07-12T03:26:00.241Z,23.29
2023-07-12T03:28:28.411Z,23.32
2023-07-12T03:31:01.037Z,23.31
2023-07-12T03:33:29.470Z,23.13
2023-07-12T03:35:57.325Z,23.09
2023-07-12T03:38:27.163Z,23.11
2023-07-12T03:40:56.355Z,23.11
2023-07-12T03:43:24.215Z,23.09
2023-07-12T03:45:52.182Z,23.11
2023-07-12T03:48:20.326Z,23.10
2023-07-12T03:50:49.850Z,23.11
2023-07-12T03:53:18.190Z,23.16
2023-07-12T03:55:49.088Z,23.09
2023-07-12T03:58:19.048Z,22.89
2023-07-12T04:00:48.676Z,22.94
2023-07-12T04:03:17.485Z,22.90
2023-07-12T04:05:46.498Z,22.86
2023-07-12T04:08:14.326Z,22.82
2023-07-12T04:10:42.213Z,22.86
2023-07-12T04:13:11.914Z,22.76
2023-07-12T04:15:39.797Z,22.75
2023-07-12T04:18:07.758Z,22.65
2023-07-12T04:20:39.007Z,22.65
2023-07-12T04:23:07.627Z,22.56
2023-07-12T04:25:35.780Z,22.54
2023-07-12T04:28:03.728Z,22.55
2023-07-12T04:30:34.293Z,22.54
2023-07-12T04:33:02.634Z,22.49
2023-07-12T04:35:30.448Z,22.55
2023-07-12T04:37:58.157Z,22.57
2023-07-12T04:40:26.520Z,22.66
2023-07-12T04:42:54.401Z,22.61
2023-07-12T04:45:22.087Z,22.59
2023-07-12T04:47:52.073Z,22.69
2023-07-12T04:50:20.222Z,22.79
2023-07-12T04:52:47.889Z,22.91
2023-07-12T04:55:24.742Z,22.82
2023-07-12T04:57:53.258Z,22.79
2023-07-12T05:00:21.567Z,22.75
2023-07-12T05:02:50.718Z,22.68
2023-07-12T05:05:18.599Z,22.66
2023-07-12T05:07:46.645Z,22.47
2023-07-12T05:10:15.396Z,22.41
2023-07-12T05:12:43.836Z,22.23
2023-07-12T05:15:12.930Z,22.31
2023-07-12T05:17:42.395Z,22.32
2023-07-12T05:20:14.058Z,22.31
2023-07-12T05:22:42.914Z,22.32
2023-07-12T05:25:11.925Z,22.39
2023-07-12T05:27:40.203Z,22.35
2023-07-12T05:30:09.664Z,22.35
2023-07-12T05:32:37.567Z,22.34
2023-07-12T05:35:06.725Z,22.25
2023-07-12T05:37:36.066Z,22.41
2023-07-12T05:40:05.176Z,22.53
2023-07-12T05:42:33.156Z,22.62
2023-07-12T05:45:00.935Z,22.55
2023-07-12T05:47:28.789Z,22.62
2023-07-12T05:49:58.113Z,22.72
2023-07-12T05:52:26.120Z,22.58
2023-07-12T05:54:55.473Z,22.39
2023-07-12T05:57:23.357Z,22.24
2023-07-12T05:59:51.246Z,22.16
2023-07-12T06:02:19.147Z,22.18
2023-07-12T06:04:47.260Z,22.10
2023-07-12T06:07:15.005Z,22.27
2023-07-12T06:09:43.041Z,22.43
2023-07-12T06:12:13.508Z,22.43
2023-07-12T06:14:41.503Z,22.43
2023-07-12T06:17:09.281Z,22.49
2023-07-12T06:19:37.078Z,22.61
2023-07-12T06:22:05.601Z,22.72
2023-07-12T06:24:33.709Z,22.80
2023-07-12T06:27:01.571Z,22.82
2023-07-12T06:29:31.369Z,22.77
2023-07-12T06:31:59.150Z,22.76
2023-07-12T06:34:27.136Z,22.82
2023-07-12T06:36:54.852Z,22.78
2023-07-12T06:39:24.741Z,22.63
2023-07-12T06:41:52.502Z,22.73
2023-07-12T06:44:20.449Z,22.65
2023-07-12T06:46:49.828Z,22.62
2023-07-12T06:49:17.767Z,22.73
2023-07-12T06:51:47.262Z,22.78
2023-07-12T06:54:15.343Z,22.73
2023-07-12T06:56:44.043Z,22.79
2023-07-12T06:59:12.681Z,22.82
2023-07-12T07:01:40.456Z,22.85
2023-07-12T07:04:09.749Z,22.79
2023-07-12T07:06:37.987Z,22.74
2023-07-12T07:09:05.825Z,22.84
2023-07-12T07:11:33.601Z,22.96
2023-07-12T07:14:01.753Z,22.91
2023-07-12T07:16:29.612Z,22.96
2023-07-12T07:18:59.626Z,23.03
2023-07-12T07:21:29.382Z,23.03
2023-07-12T07:23:57.329Z,22.90
2023-07-12T07:26:25.245Z,23.02
2023-07-12T07:28:54.700Z,23.08
2023-07-12T07:31:22.407Z,23.06
2023-07-12T07:33:50.177Z,23.12
2023-07-12T07:36:17.846Z,23.18
2023-07-12T07:38:46.940Z,23.13
2023-07-12T07:41:17.161Z,23.17
2023-07-12T07:43:46.414Z,23.21
2023-07-12T07:46:16.028Z,23.14
2023-07-12T07:48:44.241Z,23.07
2023-07-12T07:51:12.744Z,22.99
2023-07-12T07:53:40.915Z,23.01
2023-07-12T07:56:10.285Z,23.05
2023-07-12T07:58:38.213Z,23.11
2023-07-12T08:01:06.264Z,23.13
2023-07-12T08:03:36.171Z,23.15
2023-07-12T08:06:04.370Z,23.19
2023-07-12T08:08:34.227Z,23.09
2023-07-12T08:11:02.107Z,23.04
2023-07-12T08:13:31.229Z,22.96
2023-07-12T08:15:59.117Z,23.01
2023-07-12T08:18:27.143Z,23.07
2023-07-12T08:20:56.329Z,23.05
2023-07-12T08:23:24.293Z,22.90
2023-07-12T08:25:53.821Z,22.82
2023-07-12T08:28:21.637Z,22.99
2023-07-12T08:30:50.814Z,23.01
2023-07-12T08:33:19.020Z,23.01
2023-07-12T08:35:49.586Z,23.01
2023-07-12T08:38:19.889Z,22.91
2023-07-12T08:40:51.969Z,22.88
2023-07-12T08:43:23.058Z,22.74
2023-07-12T08:45:57.467Z,22.94
2023-07-12T08:48:26.346Z,23.02
2023-07-12T08:50:54.066Z,23.03
2023-07-12T08:53:25.944Z,23.08
2023-07-12T08:55:54.971Z,23.04
2023-07-12T08:58:26.222Z,22.98
2023-07-12T09:01:03.235Z,23.02
2023-07-12T09:03:31.684Z,22.94
2023-07-12T09:06:00.057Z,22.88
2023-07-12T09:08:35.405Z,22.88
2023-07-12T09:11:03.554Z,22.78
2023-07-12T09:13:36.208Z,22.73
2023-07-12T09:16:21.014Z,22.79
2023-07-12T09:18:50.941Z,22.80
2023-07-12T09:21:23.511Z,22.69
2023-07-12T09:23:54.700Z,22.59
2023-07-12T09:26:24.766Z,22.59
2023-07-12T09:28:57.445Z,22.62
2023-07-12T09:31:31.285Z,22.79
2023-07-12T09:34:05.543Z,22.92
2023-07-12T09:36:37.020Z,23.05
2023-07-12T09:39:06.871Z,23.06
2023-07-12T09:41:34.723Z,22.88
2023-07-12T09:44:03.125Z,22.85
2023-07-12T09:46:39.583Z,22.96
2023-07-12T09:49:14.295Z,22.96
2023-07-12T09:51:50.746Z,23.06
2023-07-12T09:54:31.234Z,22.93
2023-07-12T09:57:05.115Z,22.97
2023-07-12T09:59:43.792Z,23.01
2023-07-12T10:02:22.953Z,23.10
2023-07-12T10:04:56.382Z,23.19
2023-07-12T10:07:34.505Z,23.16
2023-07-12T10:10:02.307Z,23.20
2023-07-12T10:12:37.066Z,23.12
2023-07-12T10:15:05.517Z,23.05
2023-07-12T10:17:38.591Z,23.06
2023-07-12T10:20:15.154Z,23.13
2023-07-12T10:22:45.866Z,23.25
2023-07-12T10:25:24.677Z,23.29
2023-07-12T10:28:00.041Z,23.28
2023-07-12T10:30:30.240Z,23.24
2023-07-12T10:33:04.336Z,23.22
2023-07-12T10:35:44.618Z,23.27
2023-07-12T10:38:15.639Z,23.28
2023-07-12T10:40:54.169Z,23.29
2023-07-12T10:43:28.742Z,23.31
2023-07-12T10:46:02.522Z,23.47
2023-07-12T10:48:32.322Z,23.49
2023-07-12T10:51:18.932Z,23.59
2023-07-12T10:53:52.267Z,23.69
2023-07-12T10:56:26.244Z,23.73
2023-07-12T10:58:58.761Z,23.79
2023-07-12T11:01:50.842Z,23.75
2023-07-12T11:04:27.543Z,23.68
2023-07-12T11:06:58.044Z,23.68
2023-07-12T11:09:26.912Z,23.77
2023-07-12T11:12:07.203Z,23.71
2023-07-12T11:14:48.655Z,23.81
2023-07-12T11:17:21.699Z,23.78
2023-07-12T11:20:10.262Z,23.76
2023-07-12T11:22:57.672Z,23.69
2023-07-12T11:25:35.543Z,23.67
2023-07-12T11:28:05.964Z,23.58
2023-07-12T11:30:44.813Z,23.64
2023-07-12T11:33:31.120Z,23.66
2023-07-12T11:36:07.375Z,23.59
2023-07-12T11:38:38.030Z,23.83
2023-07-12T11:41:08.494Z,24.01
2023-07-12T11:43:39.078Z,24.15
2023-07-12T11:46:16.738Z,24.12
2023-07-12T11:48:50.132Z,24.06
2023-07-12T11:51:23.465Z,24.80
2023-07-12T11:53:57.400Z,25.01
2023-07-12T11:56:26.522Z,24.95
2023-07-12T11:58:55.289Z,24.85
2023-07-12T12:01:23.296Z,24.74
2023-07-12T12:03:54.022Z,24.65
2023-07-12T12:06:24.039Z,24.80
2023-07-12T12:08:56.202Z,25.07
2023-07-12T12:11:29.407Z,25.84
2023-07-12T12:13:59.059Z,26.46
2023-07-12T12:16:30.807Z,26.88
2023-07-12T12:19:02.162Z,26.96
2023-07-12T12:21:31.690Z,27.10
2023-07-12T12:24:11.586Z,27.10
2023-07-12T12:26:48.232Z,27.37
2023-07-12T12:29:18.921Z,27.54
2023-07-12T12:31:56.425Z,27.36
2023-07-12T12:34:28.848Z,27.59
2023-07-12T12:37:00.369Z,27.88
2023-07-12T12:39:29.750Z,27.93
2023-07-12T12:42:00.295Z,28.18
2023-07-12T12:44:32.577Z,27.36
2023-07-12T12:47:18.577Z,27.58
2023-07-12T12:55:07.682Z,27.02
2023-07-12T13:18:24.403Z,26.37
2023-07-12T13:20:51.328Z,26.07
2023-07-12T13:23:23.357Z,26.25
2023-07-12T13:25:53.247Z,26.16
2023-07-12T13:28:22.739Z,26.07
2023-07-12T13:30:50.574Z,26.08
2023-07-12T13:33:19.364Z,25.73
2023-07-12T13:45:53.404Z,27.05
2023-07-12T13:48:23.456Z,27.20
2023-07-12T13:50:51.529Z,27.08
2023-07-12T13:53:19.398Z,27.31
2023-07-12T13:55:47.467Z,26.86
2023-07-12T14:03:31.730Z,27.13
2023-07-12T14:06:02.529Z,27.11
2023-07-12T14:11:00.842Z,27.61
2023-07-12T14:13:29.933Z,27.18
2023-07-12T14:15:57.799Z,26.98
2023-07-12T14:18:25.486Z,26.91
2023-07-12T14:20:53.239Z,27.10
2023-07-12T14:23:24.022Z,27.42
2023-07-12T14:25:51.830Z,27.57
2023-07-12T14:28:20.188Z,27.76
2023-07-12T14:31:02.974Z,27.70
2023-07-12T14:33:36.001Z,28.00
2023-07-12T14:36:04.622Z,27.85
2023-07-12T14:38:32.292Z,28.18
2023-07-12T14:41:00.471Z,28.52
2023-07-12T14:43:28.134Z,28.59
2023-07-12T14:45:57.280Z,28.44
2023-07-12T14:48:25.037Z,28.42
2023-07-12T14:50:52.822Z,28.28
2023-07-12T14:53:23.250Z,28.43
2023-07-12T14:55:51.028Z,28.73
2023-07-12T14:58:21.251Z,28.85
2023-07-12T15:00:50.994Z,28.96
2023-07-12T15:03:26.426Z,29.09
2023-07-12T15:05:54.694Z,28.83
2023-07-12T15:08:27.661Z,28.87
2023-07-12T15:10:56.762Z,28.96
2023-07-12T15:13:25.200Z,28.92
2023-07-12T15:15:53.460Z,28.95
2023-07-12T15:18:24.986Z,28.85
2023-07-12T15:20:56.391Z,28.84
2023-07-12T15:23:33.231Z,28.91
2023-07-12T15:26:01.399Z,28.98
2023-07-12T15:28:30.500Z,29.09
2023-07-12T15:30:58.800Z,28.71
2023-07-12T15:33:29.970Z,28.39
2023-07-12T15:36:03.548Z,28.24
2023-07-12T15:38:32.012Z,28.28
2023-07-12T15:41:02.877Z,28.41
2023-07-12T15:43:33.772Z,28.40
2023-07-12T15:46:03.752Z,28.37
2023-07-12T15:48:34.890Z,28.24
2023-07-12T15:51:09.745Z,28.10
2023-07-12T15:53:37.799Z,27.92
2023-07-12T15:56:05.768Z,27.81
2023-07-12T15:58:34.744Z,27.73
2023-07-12T16:01:05.032Z,27.63
2023-07-12T16:03:37.551Z,27.36
2023-07-12T16:06:08.369Z,27.15
2023-07-12T16:08:36.878Z,26.97
2023-07-12T16:11:17.955Z,27.01
2023-07-12T16:13:59.027Z,26.85
2023-07-12T16:16:30.248Z,26.70
2023-07-12T16:18:59.717Z,26.70
2023-07-12T16:21:30.799Z,26.56
2023-07-12T16:24:00.007Z,26.55
2023-07-12T16:26:30.715Z,26.56
2023-07-12T16:28:59.944Z,26.62
2023-07-12T16:31:33.480Z,26.55
2023-07-12T16:34:05.134Z,26.57
2023-07-12T16:36:33.465Z,26.50
2023-07-12T16:39:01.488Z,26.41
2023-07-12T16:41:31.340Z,26.36
2023-07-12T16:44:00.913Z,26.35
2023-07-12T16:46:30.639Z,26.15
2023-07-12T16:48:59.571Z,26.15
2023-07-12T16:51:31.729Z,26.20
2023-07-12T16:53:59.708Z,26.16
2023-07-12T16:56:28.735Z,26.13
2023-07-12T16:58:57.082Z,26.12
2023-07-12T17:01:28.234Z,26.11
2023-07-12T17:03:58.261Z,26.00
2023-07-12T17:06:28.347Z,26.00
2023-07-12T17:08:57.587Z,26.03
2023-07-12T17:11:28.280Z,26.03
2023-07-12T17:13:56.447Z,26.03
2023-07-12T17:16:24.408Z,26.04
2023-07-12T17:18:52.946Z,26.03
2023-07-12T17:21:21.687Z,25.99
2023-07-12T17:23:51.892Z,26.00
2023-07-12T17:26:21.793Z,25.89
2023-07-12T17:28:50.202Z,25.86
2023-07-12T17:31:23.090Z,25.89
2023-07-12T17:33:50.917Z,25.85
2023-07-12T17:36:22.095Z,25.83
2023-07-12T17:38:56.965Z,25.74
2023-07-12T17:41:27.816Z,25.68
2023-07-12T17:43:55.914Z,25.60
2023-07-12T17:46:24.045Z,25.54
2023-07-12T17:48:53.284Z,25.50
2023-07-12T17:51:23.688Z,25.55
2023-07-12T17:53:53.904Z,25.59
2023-07-12T17:56:23.234Z,25.55
2023-07-12T17:58:51.157Z,25.57
2023-07-12T18:01:21.160Z,25.48
2023-07-12T18:03:51.328Z,25.40
2023-07-12T18:06:22.108Z,25.38
2023-07-12T18:08:50.698Z,25.42
2023-07-12T18:11:27.438Z,25.37
2023-07-12T18:13:55.853Z,25.37
2023-07-12T18:16:24.574Z,25.32
2023-07-12T18:18:53.294Z,25.21
2023-07-12T18:21:27.266Z,25.04
2023-07-12T18:23:57.223Z,25.08
2023-07-12T18:26:27.603Z,25.09
2023-07-12T18:28:56.569Z,25.08
2023-07-12T18:31:27.144Z,25.07
2023-07-12T18:33:55.473Z,24.93
2023-07-12T18:36:23.394Z,24.89
2023-07-12T18:38:53.333Z,24.86
2023-07-12T18:41:24.668Z,24.80
2023-07-12T18:43:54.717Z,24.73
2023-07-12T18:46:24.704Z,24.68
2023-07-12T18:48:53.194Z,24.56
2023-07-12T18:51:24.492Z,24.25
2023-07-12T18:53:53.430Z,24.21
2023-07-12T18:56:25.144Z,24.10
2023-07-12T18:58:54.716Z,24.00
2023-07-12T19:01:26.870Z,23.87
2023-07-12T19:03:54.960Z,23.84
2023-07-12T19:06:25.518Z,23.66
2023-07-12T19:08:53.532Z,23.64
2023-07-12T19:11:25.553Z,23.58
2023-07-12T19:13:55.000Z,23.52
2023-07-12T19:16:23.115Z,23.43
2023-07-12T19:18:51.709Z,23.38
2023-07-12T19:21:25.065Z,23.25
2023-07-12T19:23:54.569Z,23.14
2023-07-12T19:26:23.483Z,22.90
2023-07-12T19:28:53.590Z,22.99
2023-07-12T19:31:25.003Z,23.11
2023-07-12T19:33:57.628Z,23.14
2023-07-12T19:36:27.165Z,23.21
2023-07-12T19:38:55.224Z,23.12
2023-07-12T19:41:24.360Z,23.16
2023-07-12T19:43:52.464Z,23.17
2023-07-12T19:46:21.543Z,23.25
2023-07-12T19:48:51.042Z,23.25
2023-07-12T19:51:27.377Z,23.31
2023-07-12T19:53:57.535Z,23.34
2023-07-12T19:56:26.649Z,23.34
2023-07-12T19:58:58.374Z,23.31
2023-07-12T20:01:27.698Z,23.21
2023-07-12T20:03:58.542Z,23.25
2023-07-12T20:06:27.940Z,23.27
2023-07-12T20:08:56.737Z,23.25
2023-07-12T20:11:25.676Z,23.19
2023-07-12T20:13:54.763Z,23.24
2023-07-12T20:16:25.004Z,23.29
2023-07-12T20:18:54.892Z,23.33
2023-07-12T20:21:24.610Z,23.25
2023-07-12T20:23:52.461Z,23.23
2023-07-12T20:26:20.617Z,23.20
2023-07-12T20:28:48.640Z,23.19
2023-07-12T20:31:18.881Z,23.19
2023-07-12T20:33:47.566Z,23.12
2023-07-12T20:36:16.716Z,23.27
2023-07-12T20:38:46.112Z,23.38
2023-07-12T20:41:14.400Z,23.39
2023-07-12T20:43:42.529Z,23.42
2023-07-12T20:46:12.318Z,23.32
2023-07-12T20:48:41.314Z,23.25
2023-07-12T20:51:12.572Z,23.32
2023-07-12T20:53:44.776Z,23.28
2023-07-12T20:56:16.219Z,22.88
2023-07-12T20:58:44.462Z,22.77
2023-07-12T21:01:14.675Z,22.75
2023-07-12T21:03:42.743Z,22.82
2023-07-12T21:06:11.614Z,22.75
2023-07-12T21:08:41.213Z,22.73
2023-07-12T21:11:10.564Z,22.68
2023-07-12T21:13:40.472Z,22.55
2023-07-12T21:16:11.216Z,22.52
2023-07-12T21:18:40.217Z,22.45
2023-07-12T21:21:12.451Z,22.40
2023-07-12T21:23:41.728Z,22.51
2023-07-12T21:26:10.612Z,22.56
2023-07-12T21:28:40.252Z,22.55
2023-07-12T21:31:10.086Z,22.49
2023-07-12T21:33:38.237Z,22.52
2023-07-12T21:36:07.394Z,22.55
2023-07-12T21:38:35.702Z,22.52
2023-07-12T21:41:05.270Z,22.59
2023-07-12T21:43:33.404Z,22.59
2023-07-12T21:46:02.966Z,22.54
2023-07-12T21:48:31.739Z,22.48
2023-07-12T21:51:00.233Z,22.48
2023-07-12T21:53:28.340Z,22.43
2023-07-12T21:55:56.578Z,22.32
2023-07-12T21:58:24.921Z,22.29
2023-07-12T22:00:52.814Z,22.35
2023-07-12T22:03:22.578Z,22.33
2023-07-12T22:05:50.615Z,22.41
2023-07-12T22:08:18.664Z,22.35
2023-07-12T22:10:47.186Z,22.37
2023-07-12T22:13:15.155Z,22.41
2023-07-12T22:15:43.362Z,22.46
2023-07-12T22:18:11.537Z,22.49
2023-07-12T22:20:40.880Z,22.51
2023-07-12T22:23:09.986Z,22.51
2023-07-12T22:25:39.064Z,22.47
2023-07-12T22:28:07.837Z,22.41
2023-07-12T22:30:38.262Z,22.38
2023-07-12T22:33:07.139Z,22.30
2023-07-12T22:35:36.347Z,22.34
2023-07-12T22:38:08.903Z,22.29
2023-07-12T22:40:37.781Z,22.29
2023-07-12T22:43:06.138Z,22.24
2023-07-12T22:45:34.477Z,22.21
2023-07-12T22:48:02.751Z,22.18
2023-07-12T22:50:31.757Z,22.16
2023-07-12T22:53:02.773Z,22.17
2023-07-12T22:55:33.089Z,22.03
2023-07-12T22:58:04.607Z,22.05
2023-07-12T23:00:34.330Z,22.04
2023-07-12T23:03:02.473Z,22.03
2023-07-12T23:05:32.599Z,21.94
2023-07-12T23:08:00.610Z,21.92
2023-07-12T23:10:28.853Z,21.99
2023-07-12T23:12:59.369Z,21.98
2023-07-12T23:15:27.383Z,21.87
2023-07-12T23:17:56.580Z,21.91
2023-07-12T23:20:26.058Z,21.92
2023-07-12T23:22:54.719Z,21.90
2023-07-12T23:25:26.535Z,21.90
2023-07-12T23:27:55.241Z,21.92
2023-07-12T23:30:25.314Z,21.89
2023-07-12T23:32:53.717Z,21.93
2023-07-12T23:35:21.624Z,21.98
2023-07-12T23:37:49.531Z,21.95
2023-07-12T23:40:17.606Z,21.90
2023-07-12T23:42:45.677Z,21.87
2023-07-12T23:45:13.486Z,21.83
2023-07-12T23:47:42.675Z,21.63
2023-07-12T23:50:11.773Z,21.56
2023-07-12T23:52:40.666Z,21.59
2023-07-12T23:55:08.844Z,21.59
2023-07-12T23:57:36.707Z,21.63
